Airfield :
LOGIN :

Register | Disclaimer

   EN    FR    IT 

 










Legend :    VFR   Marginal VFR   IFR   Intensive IFR   Very Intensive IFR
Visi :
Ceiling :
>= 8 km
>= 3000ft
5 to 8 km
1000 to 3000 ft
1500m to 5 km
500 to 1000 ft
800 to 1500m
200 to 500 ft
< 800m
< 200 ft
Symbols :   Thunderstorms  Fog  Heavy snow  Heavy precipitations  Wind > 20 kt
SIGMETs :     Misc.  Thunderstorms  Icing  Turbulence  Mountain Waves  Volcanic Ashes






- Airport Elevation : 242 ft
- IATA code : DUB


EIDW - Dublin

CURRENT METAR :
  • 071830Z 24008KT 210V300 9999 FEW016CB SCT030 10/07 Q1015 NOSIG

EXPIRED METARs :
  • 071800Z 26011KT 9999 FEW016CB SCT030 11/06 Q1015 NOSIG
  • 071730Z 26011KT 9999 FEW016CB SCT030 11/07 Q1014 NOSIG
  • 071700Z 27016KT 9999 FEW016CB SCT030 11/07 Q1014 NOSIG
  • 071630Z 26015KT 230V290 9999 FEW016CB SCT030 12/07 Q1014 NOSIG
  • 071600Z 26010KT 210V290 9999 FEW016CB SCT030 12/07 Q1013 NOSIG

TAF TAF EIDW
Valid from the 07 at 18:00 until the 08 at 18:00 UTC


071700Z 0718/0818 26012KT 9999 FEW015 SCT030
PROB40
TEMPO 0718/0720 27015G25KT FEW015CB
BECMG 0816/0818 19007KT



MET'MAP, your aeronautical weather chart ! - Copyright ORBIFLY December 2007 - Disclaimer

ORBIFLY MET'MAP TEAM :

Programming & Development : Alexandra Zaïnal
Original concept : Baudouin d'Aumeries
Technical & hardware support : Manuel Goepfert
Assistance : Marc-Olivier Méhu




SOURCES & CREDITS :

   NOAA